Time;durP1;ratioP1;P1;durP2;ratioP2;P2;SDS_P1;SDS_P2;PMS_P1;PMS_P2;Temp;Humidity;BMP_temperature;BMP_pressure;BME280_temperature;BME280_humidity;BME280_pressure;Samples;Min_cycle;Max_cycle;Signal;HPM_P1;HPM_P2
2022/03/19 00:00:31;;;;;;;;;;;20.20;38.90;;;;;;5069453;28;19920;-45
2022/03/19 00:02:58;;;;;;;;;;;20.20;38.90;;;;;;5066118;28;20350;-42
2022/03/19 00:05:27;;;;;;;;;;;20.20;39.00;;;;;;5064730;28;20315;-42
2022/03/19 00:07:53;;;;;;;;;;;20.20;39.00;;;;;;5066360;28;19925;-42
2022/03/19 00:10:22;;;;;;;;;;;20.20;39.00;;;;;;5096377;28;19925;-43
2022/03/19 00:12:48;;;;;;;;;;;20.20;38.90;;;;;;5067003;28;19921;-46
2022/03/19 00:15:17;;;;;;;;;;;20.20;39.00;;;;;;5066644;28;19935;-46
2022/03/19 00:17:44;;;;;;;;;;;20.20;39.00;;;;;;5092465;28;19939;-43
2022/03/19 00:20:11;;;;;;;;;;;20.20;39.00;;;;;;5069342;28;19990;-43
2022/03/19 00:22:40;;;;;;;;;;;20.20;39.00;;;;;;5068240;28;19928;-43
2022/03/19 00:25:08;;;;;;;;;;;20.20;39.00;;;;;;5070189;28;19925;-44
2022/03/19 00:27:35;;;;;;;;;;;20.20;39.00;;;;;;5066706;28;19929;-46
2022/03/19 00:30:02;;;;;;;;;;;20.20;39.00;;;;;;5067656;28;19920;-43
2022/03/19 00:32:28;;;;;;;;;;;20.20;39.00;;;;;;5060925;28;19931;-42
2022/03/19 00:34:55;;;;;;;;;;;20.20;39.00;;;;;;5067178;28;19968;-42
2022/03/19 00:37:23;;;;;;;;;;;20.20;39.00;;;;;;5068336;28;19927;-46
2022/03/19 00:39:51;;;;;;;;;;;20.20;38.90;;;;;;5067736;28;20461;-43
2022/03/19 00:42:18;;;;;;;;;;;20.20;39.00;;;;;;5066230;28;20301;-42
2022/03/19 00:44:45;;;;;;;;;;;20.20;39.00;;;;;;5049186;28;20356;-44
2022/03/19 00:47:11;;;;;;;;;;;20.20;39.00;;;;;;5065026;28;19952;-44
2022/03/19 00:49:39;;;;;;;;;;;20.20;39.00;;;;;;5066048;28;19974;-42
2022/03/19 00:52:06;;;;;;;;;;;20.20;39.60;;;;;;5064036;28;19924;-43
2022/03/19 00:54:33;;;;;;;;;;;20.20;38.90;;;;;;5075035;28;19920;-43
2022/03/19 00:57:01;;;;;;;;;;;20.20;39.00;;;;;;5067230;28;19932;-45
2022/03/19 00:59:28;;;;;;;;;;;20.20;38.90;;;;;;5069160;28;19944;-44
2022/03/19 01:01:56;;;;;;;;;;;20.20;38.90;;;;;;5065780;28;19938;-45
2022/03/19 01:04:23;;;;;;;;;;;20.20;38.90;;;;;;5064727;28;19991;-43
2022/03/19 01:06:49;;;;;;;;;;;20.20;38.90;;;;;;5091929;28;19932;-42
2022/03/19 01:09:16;;;;;;;;;;;20.20;39.00;;;;;;5063920;28;20026;-45
2022/03/19 01:11:43;;;;;;;;;;;20.20;38.90;;;;;;5062446;28;20336;-42
2022/03/19 01:14:11;;;;;;;;;;;20.20;38.90;;;;;;5065179;28;20001;-45
2022/03/19 01:16:38;;;;;;;;;;;20.20;38.90;;;;;;5067256;28;19920;-43
2022/03/19 01:19:05;;;;;;;;;;;20.20;39.00;;;;;;5068763;28;20510;-44
2022/03/19 01:21:31;;;;;;;;;;;20.20;38.90;;;;;;5063421;28;20317;-43
2022/03/19 01:23:58;;;;;;;;;;;20.20;38.90;;;;;;5059675;28;19975;-42
2022/03/19 01:26:25;;;;;;;;;;;20.20;38.90;;;;;;5080220;28;20019;-42
2022/03/19 01:28:52;;;;;;;;;;;20.20;38.90;;;;;;5071690;28;19924;-43
2022/03/19 01:31:25;;;;;;;;;;;20.20;38.90;;;;;;5063237;28;19929;-47
2022/03/19 01:33:52;;;;;;;;;;;20.20;38.90;;;;;;5062155;28;20358;-47
2022/03/19 01:36:19;;;;;;;;;;;20.20;38.90;;;;;;5065055;28;20557;-46
2022/03/19 01:38:46;;;;;;;;;;;20.20;38.90;;;;;;5060136;28;19964;-43
2022/03/19 01:41:13;;;;;;;;;;;20.20;38.90;;;;;;5066510;28;19982;-42
2022/03/19 01:43:39;;;;;;;;;;;20.20;38.90;;;;;;5066552;28;20253;-43
2022/03/19 01:46:06;;;;;;;;;;;20.20;38.90;;;;;;5066627;28;20258;-45
2022/03/19 01:48:35;;;;;;;;;;;20.20;38.90;;;;;;5067636;28;19927;-43
2022/03/19 01:51:01;;;;;;;;;;;20.20;38.90;;;;;;5064613;28;19920;-44
2022/03/19 01:53:29;;;;;;;;;;;20.20;38.90;;;;;;5066141;28;19925;-44
2022/03/19 01:55:56;;;;;;;;;;;20.20;38.80;;;;;;5059646;28;19924;-47
2022/03/19 01:58:22;;;;;;;;;;;20.20;38.90;;;;;;5060723;28;19920;-44
2022/03/19 02:00:49;;;;;;;;;;;20.20;38.80;;;;;;5064362;28;19983;-46
2022/03/19 02:03:16;;;;;;;;;;;20.20;38.80;;;;;;5066236;28;19928;-45
2022/03/19 02:05:44;;;;;;;;;;;20.20;38.90;;;;;;5075567;28;19928;-44
2022/03/19 02:08:11;;;;;;;;;;;20.20;38.90;;;;;;5068066;28;20017;-50
2022/03/19 02:10:39;;;;;;;;;;;20.20;38.80;;;;;;5064684;28;19931;-44
2022/03/19 02:13:06;;;;;;;;;;;20.20;38.80;;;;;;5063933;28;19921;-44
2022/03/19 02:15:36;;;;;;;;;;;20.20;38.80;;;;;;5059005;28;19931;-46
2022/03/19 02:18:03;;;;;;;;;;;20.20;38.80;;;;;;5063412;28;20001;-47
2022/03/19 02:20:32;;;;;;;;;;;20.20;38.80;;;;;;5063163;28;19925;-44
2022/03/19 02:25:47;;;;;;;;;;;20.20;38.80;;;;;;5093192;28;19920;-44
2022/03/19 02:28:13;;;;;;;;;;;20.20;38.80;;;;;;5064515;28;19939;-45
2022/03/19 02:30:40;;;;;;;;;;;20.20;38.80;;;;;;5066850;28;19939;-47
2022/03/19 02:33:07;;;;;;;;;;;20.20;38.80;;;;;;5062381;28;19920;-46
2022/03/19 02:35:34;;;;;;;;;;;20.20;38.80;;;;;;5060265;28;20446;-44
2022/03/19 02:38:02;;;;;;;;;;;20.20;38.80;;;;;;5061774;28;20298;-44
2022/03/19 02:40:29;;;;;;;;;;;20.20;38.80;;;;;;5063224;28;19982;-43
2022/03/19 02:42:57;;;;;;;;;;;20.20;38.80;;;;;;5095465;28;19931;-45
2022/03/19 02:45:24;;;;;;;;;;;20.20;38.80;;;;;;5063323;28;19921;-44
2022/03/19 02:47:58;;;;;;;;;;;20.20;38.80;;;;;;5058967;28;20123;-45
2022/03/19 02:50:25;;;;;;;;;;;20.20;38.80;;;;;;5064440;28;20018;-48
2022/03/19 02:52:53;;;;;;;;;;;20.20;38.70;;;;;;5074137;28;19978;-46
2022/03/19 02:55:24;;;;;;;;;;;20.20;38.70;;;;;;5065899;28;20285;-45
2022/03/19 02:57:51;;;;;;;;;;;20.20;38.70;;;;;;5059469;28;20019;-46
2022/03/19 03:00:22;;;;;;;;;;;20.20;38.70;;;;;;5066761;28;20453;-48
2022/03/19 03:02:49;;;;;;;;;;;20.20;38.70;;;;;;5078536;28;20004;-47
2022/03/19 03:05:15;;;;;;;;;;;20.20;38.70;;;;;;5061822;28;19971;-43
2022/03/19 03:07:42;;;;;;;;;;;20.20;38.70;;;;;;5062537;28;19924;-48
2022/03/19 03:10:09;;;;;;;;;;;20.20;38.70;;;;;;5061948;28;19920;-47
2022/03/19 03:12:37;;;;;;;;;;;20.20;38.70;;;;;;5059247;28;20436;-47
2022/03/19 03:15:07;;;;;;;;;;;20.20;38.70;;;;;;5091916;28;20018;-46
2022/03/19 03:17:35;;;;;;;;;;;20.20;38.70;;;;;;5064617;28;19920;-46
2022/03/19 03:20:02;;;;;;;;;;;20.20;38.70;;;;;;5061419;28;19921;-44
2022/03/19 03:22:29;;;;;;;;;;;20.20;38.70;;;;;;5065325;28;19991;-43
2022/03/19 03:24:56;;;;;;;;;;;20.20;38.60;;;;;;5061522;28;20431;-45
2022/03/19 03:27:23;;;;;;;;;;;20.20;38.60;;;;;;5064013;28;19929;-48
2022/03/19 03:29:51;;;;;;;;;;;20.20;38.70;;;;;;5087470;28;20362;-46
2022/03/19 03:32:18;;;;;;;;;;;20.20;38.60;;;;;;5063019;28;19944;-43
2022/03/19 03:34:45;;;;;;;;;;;20.20;38.60;;;;;;5089525;28;19925;-45
2022/03/19 03:37:12;;;;;;;;;;;20.20;38.60;;;;;;5063817;28;20357;-46
2022/03/19 03:39:38;;;;;;;;;;;20.20;38.60;;;;;;5065392;28;19920;-44
2022/03/19 03:42:05;;;;;;;;;;;20.20;38.60;;;;;;5065216;28;19982;-44
2022/03/19 03:44:32;;;;;;;;;;;20.20;38.60;;;;;;5070988;28;19920;-45
2022/03/19 03:47:00;;;;;;;;;;;20.20;38.60;;;;;;5061223;28;19921;-44
2022/03/19 03:49:27;;;;;;;;;;;20.20;38.60;;;;;;5074643;28;19920;-45
2022/03/19 03:51:54;;;;;;;;;;;20.20;38.60;;;;;;5067587;28;19924;-45
2022/03/19 03:54:21;;;;;;;;;;;20.20;38.50;;;;;;5063937;28;19932;-44
2022/03/19 03:56:47;;;;;;;;;;;20.20;38.50;;;;;;5068516;28;19920;-44
2022/03/19 03:59:14;;;;;;;;;;;20.20;38.60;;;;;;5063841;28;19924;-47
2022/03/19 04:01:52;;;;;;;;;;;20.20;38.50;;;;;;5066898;28;19956;-47
2022/03/19 04:04:20;;;;;;;;;;;20.20;38.50;;;;;;5065891;28;20007;-43
2022/03/19 04:06:48;;;;;;;;;;;20.20;38.50;;;;;;5062540;28;19925;-46
2022/03/19 04:09:15;;;;;;;;;;;20.20;38.50;;;;;;5063636;28;19956;-46
2022/03/19 04:11:42;;;;;;;;;;;20.20;38.50;;;;;;5068563;28;19932;-46
2022/03/19 04:14:09;;;;;;;;;;;20.20;38.50;;;;;;5065692;28;19936;-45
2022/03/19 04:16:37;;;;;;;;;;;20.20;38.40;;;;;;5067342;28;20293;-46
2022/03/19 04:19:04;;;;;;;;;;;20.20;38.40;;;;;;5064546;28;19939;-46
2022/03/19 04:21:33;;;;;;;;;;;20.20;38.50;;;;;;5062750;28;19920;-43
2022/03/19 04:24:00;;;;;;;;;;;20.20;38.40;;;;;;5064685;28;19925;-44
2022/03/19 04:26:27;;;;;;;;;;;20.20;38.40;;;;;;5060400;28;19987;-45
2022/03/19 04:28:54;;;;;;;;;;;20.20;38.40;;;;;;5074948;28;19970;-44
2022/03/19 04:31:20;;;;;;;;;;;20.20;38.40;;;;;;5068116;28;19920;-43
2022/03/19 04:33:50;;;;;;;;;;;20.20;38.40;;;;;;5091642;28;19952;-46
2022/03/19 04:36:32;;;;;;;;;;;20.20;38.40;;;;;;5066479;28;20227;-44
2022/03/19 04:39:03;;;;;;;;;;;20.20;38.40;;;;;;5093547;28;19921;-45
2022/03/19 04:41:29;;;;;;;;;;;20.20;38.40;;;;;;5067480;28;20266;-48
2022/03/19 04:43:56;;;;;;;;;;;20.20;38.40;;;;;;5064093;28;20361;-44
2022/03/19 04:46:23;;;;;;;;;;;20.10;38.30;;;;;;5084138;28;19932;-45
2022/03/19 04:48:50;;;;;;;;;;;20.20;38.30;;;;;;5068624;28;19921;-49
2022/03/19 04:51:17;;;;;;;;;;;20.20;38.30;;;;;;5066956;28;19943;-45
2022/03/19 04:53:49;;;;;;;;;;;20.20;38.30;;;;;;5066823;28;20051;-46
2022/03/19 04:56:17;;;;;;;;;;;20.10;38.20;;;;;;5061677;28;19929;-46
2022/03/19 04:58:43;;;;;;;;;;;20.10;38.20;;;;;;5061095;28;19972;-48
2022/03/19 05:01:10;;;;;;;;;;;20.10;38.20;;;;;;5062587;28;19928;-44
2022/03/19 05:03:37;;;;;;;;;;;20.10;38.20;;;;;;5064746;28;19956;-46
2022/03/19 05:06:03;;;;;;;;;;;20.10;38.20;;;;;;5068732;28;19924;-45
2022/03/19 05:08:30;;;;;;;;;;;20.10;38.20;;;;;;5066076;28;19921;-45
2022/03/19 05:11:15;;;;;;;;;;;20.10;38.20;;;;;;5058188;28;20011;-42
2022/03/19 05:13:44;;;;;;;;;;;20.20;38.30;;;;;;5063293;28;19999;-48
2022/03/19 05:16:12;;;;;;;;;;;20.10;38.20;;;;;;5072371;28;19932;-44
2022/03/19 05:18:38;;;;;;;;;;;20.10;38.20;;;;;;5089859;28;20028;-47
2022/03/19 05:21:08;;;;;;;;;;;20.10;38.20;;;;;;5067122;28;19932;-43
2022/03/19 05:23:35;;;;;;;;;;;20.10;38.20;;;;;;5065411;28;19966;-43
2022/03/19 05:26:02;;;;;;;;;;;20.10;38.10;;;;;;5069660;28;19921;-48
2022/03/19 05:28:29;;;;;;;;;;;20.10;38.20;;;;;;5064432;28;20362;-46
2022/03/19 05:30:58;;;;;;;;;;;20.10;38.10;;;;;;5065181;28;20206;-45
2022/03/19 05:36:08;;;;;;;;;;;20.20;38.20;;;;;;5062514;28;20424;-44
2022/03/19 05:38:34;;;;;;;;;;;20.10;38.10;;;;;;5062970;28;19921;-46
2022/03/19 05:41:02;;;;;;;;;;;20.10;38.10;;;;;;5066419;28;19920;-48
2022/03/19 05:43:29;;;;;;;;;;;20.10;38.10;;;;;;5078954;28;19955;-50
2022/03/19 05:45:58;;;;;;;;;;;20.10;38.10;;;;;;5064817;28;20030;-43
2022/03/19 05:48:25;;;;;;;;;;;20.10;38.10;;;;;;5074606;28;19931;-45
2022/03/19 05:50:53;;;;;;;;;;;20.10;38.70;;;;;;5065550;28;20018;-44
2022/03/19 05:53:19;;;;;;;;;;;20.10;38.00;;;;;;5062203;28;19931;-48
2022/03/19 05:55:46;;;;;;;;;;;20.20;38.20;;;;;;5081604;28;20379;-43
2022/03/19 05:58:12;;;;;;;;;;;20.10;38.00;;;;;;5063769;28;19933;-43
2022/03/19 06:00:39;;;;;;;;;;;20.10;38.00;;;;;;5089756;28;19955;-43
2022/03/19 06:03:08;;;;;;;;;;;20.10;38.00;;;;;;5059870;28;19924;-47
2022/03/19 06:05:35;;;;;;;;;;;20.10;38.00;;;;;;5072653;28;19920;-45
2022/03/19 06:08:04;;;;;;;;;;;20.10;38.00;;;;;;5064412;28;19933;-44
2022/03/19 06:10:35;;;;;;;;;;;20.10;38.00;;;;;;5065056;28;19970;-44
2022/03/19 06:13:02;;;;;;;;;;;20.10;38.00;;;;;;5065081;28;19966;-43
2022/03/19 06:15:29;;;;;;;;;;;20.10;38.00;;;;;;5057031;28;19928;-44
2022/03/19 06:17:56;;;;;;;;;;;20.10;38.00;;;;;;5091260;28;20320;-42
2022/03/19 06:20:25;;;;;;;;;;;20.20;38.10;;;;;;5064438;28;19939;-42
2022/03/19 06:22:52;;;;;;;;;;;20.10;37.90;;;;;;5077980;28;20432;-42
2022/03/19 06:25:19;;;;;;;;;;;20.10;37.90;;;;;;5066948;28;20019;-45
2022/03/19 06:27:48;;;;;;;;;;;20.10;38.00;;;;;;5067867;28;20262;-43
2022/03/19 06:30:15;;;;;;;;;;;20.10;37.90;;;;;;5064335;28;19960;-43
2022/03/19 06:32:43;;;;;;;;;;;20.20;38.10;;;;;;5063160;28;19920;-42
2022/03/19 06:35:09;;;;;;;;;;;20.10;38.00;;;;;;5092072;28;19924;-42
2022/03/19 06:37:36;;;;;;;;;;;20.10;37.90;;;;;;5067023;28;20475;-42
2022/03/19 06:40:06;;;;;;;;;;;20.10;37.90;;;;;;5064131;28;19942;-42
2022/03/19 06:42:33;;;;;;;;;;;20.10;37.90;;;;;;5065364;28;19931;-45
2022/03/19 06:45:00;;;;;;;;;;;20.10;37.90;;;;;;5066454;28;20011;-42
2022/03/19 06:47:26;;;;;;;;;;;20.10;37.90;;;;;;5065074;28;19950;-45
2022/03/19 06:49:53;;;;;;;;;;;20.10;37.90;;;;;;5061916;28;19928;-43
2022/03/19 06:52:21;;;;;;;;;;;20.10;37.90;;;;;;5061459;28;19928;-44
2022/03/19 06:54:49;;;;;;;;;;;20.10;37.90;;;;;;5060884;28;19920;-48
2022/03/19 06:57:16;;;;;;;;;;;20.20;38.00;;;;;;5063702;28;20354;-45
2022/03/19 06:59:42;;;;;;;;;;;20.10;37.90;;;;;;5062625;28;20015;-45
2022/03/19 07:02:09;;;;;;;;;;;20.10;37.90;;;;;;5073824;28;20152;-46
2022/03/19 07:04:36;;;;;;;;;;;20.10;37.90;;;;;;5060607;28;20024;-44
2022/03/19 07:07:03;;;;;;;;;;;20.10;37.90;;;;;;5083095;28;19939;-47
2022/03/19 07:09:29;;;;;;;;;;;20.10;38.50;;;;;;5079289;28;19925;-45
2022/03/19 07:11:57;;;;;;;;;;;20.10;37.90;;;;;;5086814;28;20139;-46
2022/03/19 07:14:24;;;;;;;;;;;20.10;37.90;;;;;;5063796;28;19932;-44
2022/03/19 07:16:51;;;;;;;;;;;20.10;37.90;;;;;;5063593;28;19947;-44
2022/03/19 07:19:18;;;;;;;;;;;20.20;38.00;;;;;;5080384;28;19920;-44
2022/03/19 07:21:44;;;;;;;;;;;20.20;38.00;;;;;;5065038;28;19954;-43
2022/03/19 07:24:11;;;;;;;;;;;20.10;37.90;;;;;;5067893;28;20019;-46
2022/03/19 07:26:38;;;;;;;;;;;20.20;38.00;;;;;;5065790;28;19921;-43
2022/03/19 07:29:06;;;;;;;;;;;20.20;38.00;;;;;;5066325;28;20258;-43
2022/03/19 07:31:33;;;;;;;;;;;20.20;38.00;;;;;;5066808;28;19924;-47
2022/03/19 07:34:00;;;;;;;;;;;20.20;38.00;;;;;;5064081;28;19931;-48
2022/03/19 07:36:27;;;;;;;;;;;20.20;38.00;;;;;;5094864;28;19920;-44
2022/03/19 07:38:53;;;;;;;;;;;20.20;38.00;;;;;;5065498;28;19955;-44
2022/03/19 07:44:21;;;;;;;;;;;20.20;38.00;;;;;;5004944;28;20638;-45
2022/03/19 07:46:48;;;;;;;;;;;20.20;37.90;;;;;;5008062;28;19935;-46
2022/03/19 07:49:14;;;;;;;;;;;20.20;37.90;;;;;;5039642;28;19985;-48
2022/03/19 07:51:41;;;;;;;;;;;20.20;37.90;;;;;;5065545;28;19936;-46
2022/03/19 07:54:08;;;;;;;;;;;20.20;38.00;;;;;;5064710;28;19960;-48
2022/03/19 07:56:37;;;;;;;;;;;20.20;37.90;;;;;;5067854;28;19963;-42
2022/03/19 07:59:04;;;;;;;;;;;20.20;38.00;;;;;;5063813;28;19979;-46
2022/03/19 08:01:32;;;;;;;;;;;20.20;38.00;;;;;;5069723;28;20377;-45
2022/03/19 08:03:59;;;;;;;;;;;20.20;38.00;;;;;;5063511;28;20020;-47
2022/03/19 08:06:26;;;;;;;;;;;20.20;37.90;;;;;;5068943;28;20276;-44
2022/03/19 08:08:53;;;;;;;;;;;20.20;38.00;;;;;;5069511;28;20004;-50
2022/03/19 08:11:20;;;;;;;;;;;20.20;37.90;;;;;;5065411;28;19925;-45
2022/03/19 08:13:47;;;;;;;;;;;20.20;37.90;;;;;;5068222;28;19924;-44
2022/03/19 08:16:14;;;;;;;;;;;20.20;38.00;;;;;;5066375;28;19925;-47
2022/03/19 08:18:42;;;;;;;;;;;20.20;38.00;;;;;;5064518;28;20319;-44
2022/03/19 08:21:09;;;;;;;;;;;20.20;37.90;;;;;;5066406;28;20647;-47
2022/03/19 08:23:35;;;;;;;;;;;20.20;37.90;;;;;;5072970;28;20013;-48
2022/03/19 08:26:03;;;;;;;;;;;20.20;37.90;;;;;;5065706;28;19931;-45
2022/03/19 08:28:30;;;;;;;;;;;20.20;37.90;;;;;;5068123;28;20407;-43
2022/03/19 08:30:58;;;;;;;;;;;20.20;38.00;;;;;;5066768;28;19975;-49
2022/03/19 08:33:24;;;;;;;;;;;20.20;37.90;;;;;;5072427;28;19920;-43
2022/03/19 08:35:52;;;;;;;;;;;20.20;38.00;;;;;;5082216;28;20062;-43
2022/03/19 08:41:03;;;;;;;;;;;20.20;37.90;;;;;;5065324;28;20402;-45
2022/03/19 08:43:30;;;;;;;;;;;20.20;38.00;;;;;;5063309;28;19924;-43
2022/03/19 08:45:57;;;;;;;;;;;20.20;37.90;;;;;;5064791;28;20015;-46
2022/03/19 08:48:24;;;;;;;;;;;20.20;38.00;;;;;;5063450;28;19920;-44
2022/03/19 08:50:52;;;;;;;;;;;20.20;38.00;;;;;;5063451;28;19982;-43
2022/03/19 08:53:20;;;;;;;;;;;20.20;38.00;;;;;;5064191;28;19925;-43
2022/03/19 08:55:47;;;;;;;;;;;20.20;38.00;;;;;;5064558;28;20237;-44
2022/03/19 08:58:15;;;;;;;;;;;20.20;38.00;;;;;;5065117;28;20334;-43
2022/03/19 09:00:41;;;;;;;;;;;20.20;38.00;;;;;;5067981;28;19970;-49
2022/03/19 09:03:09;;;;;;;;;;;20.20;38.00;;;;;;5067666;28;20366;-43
2022/03/19 09:05:35;;;;;;;;;;;20.20;38.00;;;;;;5081961;28;19986;-48
2022/03/19 09:08:02;;;;;;;;;;;20.20;38.00;;;;;;5062999;28;20411;-43
2022/03/19 09:10:31;;;;;;;;;;;20.20;38.00;;;;;;5091711;28;19921;-43
2022/03/19 09:12:58;;;;;;;;;;;20.20;38.10;;;;;;5064274;28;19931;-43
2022/03/19 09:15:28;;;;;;;;;;;20.20;38.10;;;;;;5056654;28;19936;-44
2022/03/19 09:17:55;;;;;;;;;;;20.20;38.10;;;;;;5089168;28;20347;-43
2022/03/19 09:20:23;;;;;;;;;;;20.20;38.10;;;;;;5064403;28;20354;-44
2022/03/19 09:22:49;;;;;;;;;;;20.20;38.10;;;;;;5063459;28;19924;-46
2022/03/19 09:25:16;;;;;;;;;;;20.20;38.10;;;;;;5064511;28;19938;-45
2022/03/19 09:27:45;;;;;;;;;;;20.20;38.10;;;;;;5062368;28;19921;-44
2022/03/19 09:30:12;;;;;;;;;;;20.20;38.10;;;;;;5063882;28;19928;-45
2022/03/19 09:32:39;;;;;;;;;;;20.20;38.10;;;;;;5064533;28;20377;-45
2022/03/19 09:35:08;;;;;;;;;;;20.20;38.10;;;;;;5064903;28;20027;-42
2022/03/19 09:37:35;;;;;;;;;;;20.20;37.50;;;;;;5063545;28;20416;-45
2022/03/19 09:40:02;;;;;;;;;;;20.20;36.80;;;;;;5067353;28;19924;-44
2022/03/19 09:42:31;;;;;;;;;;;20.20;36.30;;;;;;5096996;28;20197;-44
2022/03/19 09:45:03;;;;;;;;;;;20.20;35.90;;;;;;5064400;28;19932;-43
2022/03/19 09:47:30;;;;;;;;;;;20.10;35.60;;;;;;5097611;28;20019;-45
2022/03/19 09:49:57;;;;;;;;;;;20.10;35.40;;;;;;5064375;28;19932;-43
2022/03/19 09:52:24;;;;;;;;;;;20.10;35.30;;;;;;5064109;28;19920;-49
2022/03/19 09:54:51;;;;;;;;;;;20.10;35.30;;;;;;5058538;28;19939;-46
2022/03/19 09:57:18;;;;;;;;;;;20.00;35.30;;;;;;5052539;28;20511;-44
2022/03/19 09:59:45;;;;;;;;;;;20.00;35.40;;;;;;5067298;28;20346;-46
2022/03/19 10:02:14;;;;;;;;;;;20.00;35.50;;;;;;5098919;28;20541;-44
2022/03/19 10:04:41;;;;;;;;;;;20.00;35.70;;;;;;5066062;28;20153;-43
2022/03/19 10:09:52;;;;;;;;;;;20.00;36.00;;;;;;5091201;27;19928;-44
2022/03/19 10:12:20;;;;;;;;;;;20.00;36.10;;;;;;5064407;28;19927;-43
2022/03/19 10:14:47;;;;;;;;;;;20.10;36.30;;;;;;5069188;28;19971;-43
2022/03/19 10:17:26;;;;;;;;;;;20.00;36.30;;;;;;5071881;28;20070;-50
2022/03/19 10:19:54;;;;;;;;;;;20.00;36.40;;;;;;5061975;28;19924;-43
2022/03/19 10:22:26;;;;;;;;;;;20.10;36.50;;;;;;5066791;28;19929;-48
2022/03/19 10:24:57;;;;;;;;;;;20.00;36.50;;;;;;5060713;28;20011;-43
2022/03/19 10:27:23;;;;;;;;;;;20.10;36.60;;;;;;5089481;28;19932;-43
2022/03/19 10:30:01;;;;;;;;;;;20.10;36.60;;;;;;5089182;28;19928;-44
2022/03/19 10:32:29;;;;;;;;;;;20.10;36.70;;;;;;5078323;28;19928;-43
2022/03/19 10:34:56;;;;;;;;;;;20.10;36.70;;;;;;5064018;28;19932;-46
2022/03/19 10:37:34;;;;;;;;;;;20.10;36.80;;;;;;5062711;28;20358;-43
2022/03/19 10:40:01;;;;;;;;;;;20.10;36.80;;;;;;5061120;28;19966;-45
2022/03/19 10:42:27;;;;;;;;;;;20.10;36.80;;;;;;5059509;28;19932;-43
2022/03/19 10:44:54;;;;;;;;;;;20.10;36.90;;;;;;5067446;28;19932;-48
2022/03/19 10:47:22;;;;;;;;;;;20.10;36.90;;;;;;5061293;28;19920;-45
2022/03/19 10:49:50;;;;;;;;;;;20.10;36.80;;;;;;5063648;28;19998;-43
2022/03/19 10:52:17;;;;;;;;;;;20.10;36.50;;;;;;5065209;28;19928;-48
2022/03/19 10:54:45;;;;;;;;;;;20.10;36.30;;;;;;5059750;28;19920;-43
2022/03/19 10:57:11;;;;;;;;;;;20.10;35.80;;;;;;5077518;28;20023;-47
2022/03/19 10:59:38;;;;;;;;;;;20.10;35.20;;;;;;5064439;28;19952;-43
2022/03/19 11:02:05;;;;;;;;;;;20.00;34.80;;;;;;5063079;28;19981;-49
2022/03/19 11:04:32;;;;;;;;;;;20.10;34.50;;;;;;5062839;28;19974;-47
2022/03/19 11:07:00;;;;;;;;;;;20.00;34.20;;;;;;5070773;28;19921;-45
2022/03/19 11:09:27;;;;;;;;;;;20.00;34.10;;;;;;5063557;28;20218;-44
2022/03/19 11:11:57;;;;;;;;;;;20.00;34.10;;;;;;5063979;28;19920;-47
2022/03/19 11:14:24;;;;;;;;;;;20.00;34.10;;;;;;5058880;28;19936;-44
2022/03/19 11:17:23;;;;;;;;;;;20.00;34.10;;;;;;5062232;28;20000;-44
2022/03/19 11:19:40;;;;;;;;;;;20.00;34.10;;;;;;5059417;28;20362;-47
2022/03/19 11:22:08;;;;;;;;;;;19.90;34.10;;;;;;5069489;28;19927;-45
2022/03/19 11:24:37;;;;;;;;;;;20.00;34.40;;;;;;5059221;28;19932;-48
2022/03/19 11:27:04;;;;;;;;;;;19.90;34.40;;;;;;5063943;28;19931;-43
2022/03/19 11:29:31;;;;;;;;;;;20.00;34.70;;;;;;5060669;28;19925;-43
2022/03/19 11:31:59;;;;;;;;;;;20.00;34.80;;;;;;5063612;28;19921;-43
2022/03/19 11:34:27;;;;;;;;;;;20.00;34.90;;;;;;5058407;28;20296;-44
2022/03/19 11:36:54;;;;;;;;;;;20.00;35.00;;;;;;5058111;28;19982;-47
2022/03/19 11:39:22;;;;;;;;;;;20.00;35.10;;;;;;5062871;28;20014;-43
2022/03/19 11:41:48;;;;;;;;;;;20.00;35.30;;;;;;5060518;28;19920;-44
2022/03/19 11:44:23;;;;;;;;;;;20.00;35.40;;;;;;5075366;28;20388;-47
2022/03/19 11:46:57;;;;;;;;;;;20.00;35.40;;;;;;5062251;28;20023;-41
2022/03/19 11:49:43;;;;;;;;;;;20.00;35.40;;;;;;5095020;28;19933;-45
2022/03/19 11:52:09;;;;;;;;;;;20.00;35.50;;;;;;5059457;28;19925;-43
2022/03/19 11:54:54;;;;;;;;;;;20.00;35.50;;;;;;5064635;28;20011;-42
2022/03/19 11:57:22;;;;;;;;;;;20.00;35.60;;;;;;5061023;28;19980;-44
2022/03/19 11:59:49;;;;;;;;;;;20.00;35.70;;;;;;5063692;28;19997;-44
2022/03/19 12:02:16;;;;;;;;;;;20.00;35.70;;;;;;5057682;28;20374;-46
2022/03/19 12:04:45;;;;;;;;;;;20.00;35.70;;;;;;5060694;28;20320;-43
2022/03/19 12:07:11;;;;;;;;;;;20.00;35.80;;;;;;5063763;28;20003;-47
2022/03/19 12:09:53;;;;;;;;;;;20.00;35.90;;;;;;5062848;28;19966;-44
2022/03/19 12:12:25;;;;;;;;;;;20.10;36.00;;;;;;5061118;28;19924;-46
2022/03/19 12:14:52;;;;;;;;;;;20.10;36.00;;;;;;5091316;28;20019;-45
2022/03/19 12:17:19;;;;;;;;;;;20.10;36.10;;;;;;5063154;28;19927;-45
2022/03/19 12:19:53;;;;;;;;;;;20.10;36.10;;;;;;5062872;28;19933;-45
2022/03/19 12:22:30;;;;;;;;;;;20.10;36.10;;;;;;5064258;28;19920;-42
2022/03/19 12:24:59;;;;;;;;;;;20.10;36.10;;;;;;5062779;28;19920;-45
2022/03/19 12:27:27;;;;;;;;;;;20.10;36.20;;;;;;5091725;28;19920;-45
2022/03/19 12:29:53;;;;;;;;;;;20.10;36.20;;;;;;5074657;28;19924;-45
2022/03/19 12:32:22;;;;;;;;;;;20.10;36.30;;;;;;5067103;28;19921;-44
2022/03/19 12:34:50;;;;;;;;;;;20.10;36.20;;;;;;5065281;28;20309;-48
2022/03/19 12:37:17;;;;;;;;;;;20.10;36.30;;;;;;5062889;28;19964;-50
2022/03/19 12:39:43;;;;;;;;;;;20.10;36.30;;;;;;5082332;28;20014;-43
2022/03/19 12:42:11;;;;;;;;;;;20.10;36.30;;;;;;5063386;28;19924;-44
2022/03/19 12:44:40;;;;;;;;;;;20.10;36.40;;;;;;5061896;28;19920;-43
2022/03/19 12:47:11;;;;;;;;;;;20.10;36.40;;;;;;5090872;28;20332;-46
2022/03/19 12:49:37;;;;;;;;;;;20.10;36.40;;;;;;5055711;28;19921;-43
2022/03/19 12:52:08;;;;;;;;;;;20.10;36.40;;;;;;5067085;28;19924;-46
2022/03/19 12:54:35;;;;;;;;;;;20.10;36.40;;;;;;5062627;28;20011;-42
2022/03/19 12:57:07;;;;;;;;;;;20.10;36.40;;;;;;5066078;28;19924;-42
2022/03/19 12:59:34;;;;;;;;;;;20.10;36.40;;;;;;5064631;28;19951;-44
2022/03/19 13:02:03;;;;;;;;;;;20.10;36.50;;;;;;5067955;28;20342;-44
2022/03/19 13:04:30;;;;;;;;;;;20.10;36.50;;;;;;5067201;28;20354;-42
2022/03/19 13:06:57;;;;;;;;;;;20.10;36.50;;;;;;5050896;28;20286;-44
2022/03/19 13:09:31;;;;;;;;;;;20.10;36.50;;;;;;5084916;28;19931;-42
2022/03/19 13:11:58;;;;;;;;;;;20.20;36.60;;;;;;5063663;28;19924;-42
2022/03/19 13:14:25;;;;;;;;;;;20.10;36.50;;;;;;5065536;28;20345;-44
2022/03/19 13:16:54;;;;;;;;;;;20.20;36.70;;;;;;5068353;28;19924;-43
2022/03/19 13:19:22;;;;;;;;;;;20.20;36.70;;;;;;5101403;28;19924;-44
2022/03/19 13:21:50;;;;;;;;;;;20.20;36.70;;;;;;5055417;28;19982;-43
2022/03/19 13:24:17;;;;;;;;;;;20.20;36.70;;;;;;5060832;28;19974;-42
2022/03/19 13:26:43;;;;;;;;;;;20.20;36.70;;;;;;5059618;28;19931;-43
2022/03/19 13:29:10;;;;;;;;;;;20.20;36.70;;;;;;5063867;28;20308;-42
2022/03/19 13:31:37;;;;;;;;;;;20.20;36.70;;;;;;5055364;28;19947;-52
2022/03/19 13:34:05;;;;;;;;;;;20.20;36.80;;;;;;5063396;28;19928;-42
2022/03/19 13:36:34;;;;;;;;;;;20.20;36.80;;;;;;5063519;28;20263;-42
2022/03/19 13:39:01;;;;;;;;;;;20.20;36.80;;;;;;5055332;28;20199;-43
2022/03/19 13:41:27;;;;;;;;;;;20.20;36.80;;;;;;5058241;28;19920;-43
2022/03/19 13:43:57;;;;;;;;;;;20.20;36.80;;;;;;5065270;28;20237;-43
2022/03/19 13:46:23;;;;;;;;;;;20.20;36.80;;;;;;5062999;28;20040;-43
2022/03/19 13:48:58;;;;;;;;;;;20.20;37.40;;;;;;5063691;28;19920;-43
2022/03/19 13:51:25;;;;;;;;;;;20.20;36.80;;;;;;5057623;28;19924;-46
2022/03/19 13:53:53;;;;;;;;;;;20.20;36.80;;;;;;5051082;28;19985;-45
2022/03/19 13:56:21;;;;;;;;;;;20.20;36.80;;;;;;5058237;28;19964;-43
2022/03/19 13:58:59;;;;;;;;;;;20.20;36.90;;;;;;5063076;28;19991;-43
2022/03/19 14:01:30;;;;;;;;;;;20.20;36.90;;;;;;5055615;28;20387;-44
2022/03/19 14:03:57;;;;;;;;;;;20.20;36.90;;;;;;5048670;28;20019;-43
2022/03/19 14:06:31;;;;;;;;;;;20.20;36.90;;;;;;5069303;28;19921;-45
2022/03/19 14:09:00;;;;;;;;;;;20.20;36.90;;;;;;5046992;28;19921;-44
2022/03/19 14:11:36;;;;;;;;;;;20.20;36.90;;;;;;5050154;28;20349;-45
2022/03/19 14:14:02;;;;;;;;;;;20.20;37.00;;;;;;5056733;28;20011;-42
2022/03/19 14:16:29;;;;;;;;;;;20.20;36.90;;;;;;5056144;28;19932;-42
2022/03/19 14:18:57;;;;;;;;;;;20.20;36.90;;;;;;5095626;28;20367;-44
2022/03/19 14:21:24;;;;;;;;;;;20.20;36.90;;;;;;5053466;28;19929;-43
2022/03/19 14:23:51;;;;;;;;;;;20.20;36.90;;;;;;5087278;28;19928;-42
2022/03/19 14:26:19;;;;;;;;;;;20.20;36.90;;;;;;5062704;28;19924;-43
2022/03/19 14:28:48;;;;;;;;;;;20.20;37.00;;;;;;5064725;28;19924;-43
2022/03/19 14:31:17;;;;;;;;;;;20.20;36.90;;;;;;5052182;28;19935;-43
2022/03/19 14:33:43;;;;;;;;;;;20.20;37.00;;;;;;5048763;28;20332;-43